sensor_id;sensor_type;location;lat;lon;timestamp;temperature;humidity
6244;DHT22;3155;49.940;8.450;2023-06-14T00:02:06;15.90;15.30
6244;DHT22;3155;49.940;8.450;2023-06-14T00:04:35;15.80;15.30
6244;DHT22;3155;49.940;8.450;2023-06-14T00:07:07;15.80;15.10
6244;DHT22;3155;49.940;8.450;2023-06-14T00:09:37;15.70;15.80
6244;DHT22;3155;49.940;8.450;2023-06-14T00:12:09;15.60;15.00
6244;DHT22;3155;49.940;8.450;2023-06-14T00:14:35;15.60;14.80
6244;DHT22;3155;49.940;8.450;2023-06-14T00:17:06;15.50;14.90
6244;DHT22;3155;49.940;8.450;2023-06-14T00:19:34;15.40;14.50
6244;DHT22;3155;49.940;8.450;2023-06-14T00:22:02;15.40;14.70
6244;DHT22;3155;49.940;8.450;2023-06-14T00:24:29;15.30;15.10
6244;DHT22;3155;49.940;8.450;2023-06-14T00:26:56;15.20;14.60
6244;DHT22;3155;49.940;8.450;2023-06-14T00:29:23;15.20;15.00
6244;DHT22;3155;49.940;8.450;2023-06-14T00:31:50;15.20;14.70
6244;DHT22;3155;49.940;8.450;2023-06-14T00:34:17;15.20;14.90
6244;DHT22;3155;49.940;8.450;2023-06-14T00:36:43;15.20;15.10
6244;DHT22;3155;49.940;8.450;2023-06-14T00:39:10;15.00;14.60
6244;DHT22;3155;49.940;8.450;2023-06-14T00:41:39;15.00;15.20
6244;DHT22;3155;49.940;8.450;2023-06-14T00:44:06;15.10;15.20
6244;DHT22;3155;49.940;8.450;2023-06-14T00:46:35;15.10;15.40
6244;DHT22;3155;49.940;8.450;2023-06-14T00:49:02;15.00;16.10
6244;DHT22;3155;49.940;8.450;2023-06-14T00:51:29;15.10;15.90
6244;DHT22;3155;49.940;8.450;2023-06-14T00:53:55;15.10;16.30
6244;DHT22;3155;49.940;8.450;2023-06-14T00:56:22;15.20;16.80
6244;DHT22;3155;49.940;8.450;2023-06-14T00:58:50;15.20;16.90
6244;DHT22;3155;49.940;8.450;2023-06-14T01:01:17;15.30;17.20
6244;DHT22;3155;49.940;8.450;2023-06-14T01:03:44;15.30;17.40
6244;DHT22;3155;49.940;8.450;2023-06-14T01:09:07;15.30;18.20
6244;DHT22;3155;49.940;8.450;2023-06-14T01:11:54;15.20;17.60
6244;DHT22;3155;49.940;8.450;2023-06-14T01:14:24;15.00;16.90
6244;DHT22;3155;49.940;8.450;2023-06-14T01:16:52;15.00;17.00
6244;DHT22;3155;49.940;8.450;2023-06-14T01:19:20;14.90;17.50
6244;DHT22;3155;49.940;8.450;2023-06-14T01:21:52;14.90;16.80
6244;DHT22;3155;49.940;8.450;2023-06-14T01:24:19;14.80;17.00
6244;DHT22;3155;49.940;8.450;2023-06-14T01:26:50;14.70;17.00
6244;DHT22;3155;49.940;8.450;2023-06-14T01:29:18;14.70;16.60
6244;DHT22;3155;49.940;8.450;2023-06-14T01:31:47;14.60;16.60
6244;DHT22;3155;49.940;8.450;2023-06-14T01:34:15;14.60;17.20
6244;DHT22;3155;49.940;8.450;2023-06-14T01:36:44;14.50;17.00
6244;DHT22;3155;49.940;8.450;2023-06-14T01:39:14;14.50;17.00
6244;DHT22;3155;49.940;8.450;2023-06-14T01:41:42;14.50;17.40
6244;DHT22;3155;49.940;8.450;2023-06-14T01:44:10;14.40;17.40
6244;DHT22;3155;49.940;8.450;2023-06-14T01:46:37;14.50;17.70
6244;DHT22;3155;49.940;8.450;2023-06-14T01:49:04;14.50;17.90
6244;DHT22;3155;49.940;8.450;2023-06-14T01:51:31;14.50;18.10
6244;DHT22;3155;49.940;8.450;2023-06-14T01:53:58;14.50;18.10
6244;DHT22;3155;49.940;8.450;2023-06-14T01:56:25;14.50;18.30
6244;DHT22;3155;49.940;8.450;2023-06-14T01:58:55;14.50;18.70
6244;DHT22;3155;49.940;8.450;2023-06-14T02:01:22;14.50;19.00
6244;DHT22;3155;49.940;8.450;2023-06-14T02:03:49;14.60;18.90
6244;DHT22;3155;49.940;8.450;2023-06-14T02:06:20;14.60;19.90
6244;DHT22;3155;49.940;8.450;2023-06-14T02:08:47;14.60;19.70
6244;DHT22;3155;49.940;8.450;2023-06-14T02:11:13;14.60;19.50
6244;DHT22;3155;49.940;8.450;2023-06-14T02:13:40;14.60;19.90
6244;DHT22;3155;49.940;8.450;2023-06-14T02:16:07;14.60;20.40
6244;DHT22;3155;49.940;8.450;2023-06-14T02:18:37;14.60;19.90
6244;DHT22;3155;49.940;8.450;2023-06-14T02:21:03;14.50;19.40
6244;DHT22;3155;49.940;8.450;2023-06-14T02:23:30;14.50;19.50
6244;DHT22;3155;49.940;8.450;2023-06-14T02:26:01;14.40;19.90
6244;DHT22;3155;49.940;8.450;2023-06-14T02:28:29;14.30;19.50
6244;DHT22;3155;49.940;8.450;2023-06-14T02:30:56;14.20;19.10
6244;DHT22;3155;49.940;8.450;2023-06-14T02:33:23;14.10;19.90
6244;DHT22;3155;49.940;8.450;2023-06-14T02:35:52;14.00;19.10
6244;DHT22;3155;49.940;8.450;2023-06-14T02:38:19;13.90;19.90
6244;DHT22;3155;49.940;8.450;2023-06-14T02:40:48;14.00;20.00
6244;DHT22;3155;49.940;8.450;2023-06-14T02:43:15;14.00;20.40
6244;DHT22;3155;49.940;8.450;2023-06-14T02:45:46;14.00;21.50
6244;DHT22;3155;49.940;8.450;2023-06-14T02:48:13;14.00;21.70
6244;DHT22;3155;49.940;8.450;2023-06-14T02:50:43;14.00;21.80
6244;DHT22;3155;49.940;8.450;2023-06-14T02:53:09;14.00;21.70
6244;DHT22;3155;49.940;8.450;2023-06-14T02:55:37;14.00;21.70
6244;DHT22;3155;49.940;8.450;2023-06-14T02:58:10;14.00;22.10
6244;DHT22;3155;49.940;8.450;2023-06-14T03:00:36;14.10;22.80
6244;DHT22;3155;49.940;8.450;2023-06-14T03:03:05;14.10;22.20
6244;DHT22;3155;49.940;8.450;2023-06-14T03:05:43;14.10;22.90
6244;DHT22;3155;49.940;8.450;2023-06-14T03:08:15;14.20;23.00
6244;DHT22;3155;49.940;8.450;2023-06-14T03:10:46;14.20;23.70
6244;DHT22;3155;49.940;8.450;2023-06-14T03:13:13;14.20;24.00
6244;DHT22;3155;49.940;8.450;2023-06-14T03:15:43;14.30;23.80
6244;DHT22;3155;49.940;8.450;2023-06-14T03:18:11;14.30;24.00
6244;DHT22;3155;49.940;8.450;2023-06-14T03:20:38;14.30;24.20
6244;DHT22;3155;49.940;8.450;2023-06-14T03:23:06;14.30;24.20
6244;DHT22;3155;49.940;8.450;2023-06-14T03:25:38;14.20;24.30
6244;DHT22;3155;49.940;8.450;2023-06-14T03:28:07;14.10;24.80
6244;DHT22;3155;49.940;8.450;2023-06-14T03:30:34;14.00;25.90
6244;DHT22;3155;49.940;8.450;2023-06-14T03:33:01;14.10;25.30
6244;DHT22;3155;49.940;8.450;2023-06-14T03:35:29;14.10;26.40
6244;DHT22;3155;49.940;8.450;2023-06-14T03:37:56;14.00;27.10
6244;DHT22;3155;49.940;8.450;2023-06-14T03:40:23;14.00;27.00
6244;DHT22;3155;49.940;8.450;2023-06-14T03:42:54;13.90;27.10
6244;DHT22;3155;49.940;8.450;2023-06-14T03:45:21;13.90;28.00
6244;DHT22;3155;49.940;8.450;2023-06-14T03:47:50;13.80;28.30
6244;DHT22;3155;49.940;8.450;2023-06-14T03:50:18;13.80;28.70
6244;DHT22;3155;49.940;8.450;2023-06-14T03:52:50;13.80;30.40
6244;DHT22;3155;49.940;8.450;2023-06-14T03:55:24;13.70;31.40
6244;DHT22;3155;49.940;8.450;2023-06-14T03:57:54;13.80;32.00
6244;DHT22;3155;49.940;8.450;2023-06-14T04:00:21;13.80;33.30
6244;DHT22;3155;49.940;8.450;2023-06-14T04:02:49;13.80;33.90
6244;DHT22;3155;49.940;8.450;2023-06-14T04:05:16;13.70;35.40
6244;DHT22;3155;49.940;8.450;2023-06-14T04:07:46;13.70;38.00
6244;DHT22;3155;49.940;8.450;2023-06-14T04:10:15;13.70;39.40
6244;DHT22;3155;49.940;8.450;2023-06-14T04:12:42;13.70;42.10
6244;DHT22;3155;49.940;8.450;2023-06-14T04:15:10;13.80;44.00
6244;DHT22;3155;49.940;8.450;2023-06-14T04:17:47;13.80;47.50
6244;DHT22;3155;49.940;8.450;2023-06-14T04:20:14;14.00;47.90
6244;DHT22;3155;49.940;8.450;2023-06-14T04:22:40;14.10;48.60
6244;DHT22;3155;49.940;8.450;2023-06-14T04:25:10;14.30;47.00
6244;DHT22;3155;49.940;8.450;2023-06-14T04:27:37;14.50;47.10
6244;DHT22;3155;49.940;8.450;2023-06-14T04:30:04;14.70;46.40
6244;DHT22;3155;49.940;8.450;2023-06-14T04:32:32;14.90;45.80
6244;DHT22;3155;49.940;8.450;2023-06-14T04:35:00;15.10;44.30
6244;DHT22;3155;49.940;8.450;2023-06-14T04:37:30;15.30;44.60
6244;DHT22;3155;49.940;8.450;2023-06-14T04:39:58;15.40;45.10
6244;DHT22;3155;49.940;8.450;2023-06-14T04:42:25;15.70;46.00
6244;DHT22;3155;49.940;8.450;2023-06-14T04:44:57;16.30;47.30
6244;DHT22;3155;49.940;8.450;2023-06-14T04:47:24;16.90;46.60
6244;DHT22;3155;49.940;8.450;2023-06-14T04:49:57;17.50;48.90
6244;DHT22;3155;49.940;8.450;2023-06-14T04:52:24;18.10;48.90
6244;DHT22;3155;49.940;8.450;2023-06-14T04:54:53;18.60;49.70
6244;DHT22;3155;49.940;8.450;2023-06-14T04:57:20;18.90;51.00
6244;DHT22;3155;49.940;8.450;2023-06-14T04:59:48;19.20;50.60
6244;DHT22;3155;49.940;8.450;2023-06-14T05:02:22;19.60;51.60
6244;DHT22;3155;49.940;8.450;2023-06-14T05:04:50;19.90;52.30
6244;DHT22;3155;49.940;8.450;2023-06-14T05:07:20;20.10;52.70
6244;DHT22;3155;49.940;8.450;2023-06-14T05:09:50;20.40;53.50
6244;DHT22;3155;49.940;8.450;2023-06-14T05:12:16;20.80;55.40
6244;DHT22;3155;49.940;8.450;2023-06-14T05:14:45;21.10;56.00
6244;DHT22;3155;49.940;8.450;2023-06-14T05:17:12;21.60;57.50
6244;DHT22;3155;49.940;8.450;2023-06-14T05:19:39;21.80;58.70
6244;DHT22;3155;49.940;8.450;2023-06-14T05:22:08;22.00;58.70
6244;DHT22;3155;49.940;8.450;2023-06-14T05:24:35;22.10;57.90
6244;DHT22;3155;49.940;8.450;2023-06-14T05:27:01;22.20;58.30
6244;DHT22;3155;49.940;8.450;2023-06-14T05:29:29;22.10;57.50
6244;DHT22;3155;49.940;8.450;2023-06-14T05:31:56;22.10;57.20
6244;DHT22;3155;49.940;8.450;2023-06-14T05:34:28;22.00;56.90
6244;DHT22;3155;49.940;8.450;2023-06-14T05:36:55;22.00;55.60
6244;DHT22;3155;49.940;8.450;2023-06-14T05:39:22;21.90;54.50
6244;DHT22;3155;49.940;8.450;2023-06-14T05:41:55;21.80;54.10
6244;DHT22;3155;49.940;8.450;2023-06-14T05:44:21;21.70;53.00
6244;DHT22;3155;49.940;8.450;2023-06-14T05:46:48;21.80;53.40
6244;DHT22;3155;49.940;8.450;2023-06-14T05:49:17;21.80;53.60
6244;DHT22;3155;49.940;8.450;2023-06-14T05:51:44;21.80;52.40
6244;DHT22;3155;49.940;8.450;2023-06-14T05:54:11;22.00;54.00
6244;DHT22;3155;49.940;8.450;2023-06-14T05:56:38;22.00;53.10
6244;DHT22;3155;49.940;8.450;2023-06-14T05:59:04;22.00;53.30
6244;DHT22;3155;49.940;8.450;2023-06-14T06:01:31;22.00;53.10
6244;DHT22;3155;49.940;8.450;2023-06-14T06:04:02;22.10;52.90
6244;DHT22;3155;49.940;8.450;2023-06-14T06:06:30;22.50;54.70
6244;DHT22;3155;49.940;8.450;2023-06-14T06:08:56;22.50;54.70
6244;DHT22;3155;49.940;8.450;2023-06-14T06:11:23;23.00;57.20
6244;DHT22;3155;49.940;8.450;2023-06-14T06:13:50;22.60;54.90
6244;DHT22;3155;49.940;8.450;2023-06-14T06:16:17;22.80;55.50
6244;DHT22;3155;49.940;8.450;2023-06-14T06:18:44;22.70;55.60
6244;DHT22;3155;49.940;8.450;2023-06-14T06:21:11;23.30;58.80
6244;DHT22;3155;49.940;8.450;2023-06-14T06:23:38;23.70;60.20
6244;DHT22;3155;49.940;8.450;2023-06-14T06:26:04;23.50;59.60
6244;DHT22;3155;49.940;8.450;2023-06-14T06:28:32;23.30;58.00
6244;DHT22;3155;49.940;8.450;2023-06-14T06:30:58;22.90;55.70
6244;DHT22;3155;49.940;8.450;2023-06-14T06:33:29;23.10;55.90
6244;DHT22;3155;49.940;8.450;2023-06-14T06:35:56;23.20;57.40
6244;DHT22;3155;49.940;8.450;2023-06-14T06:38:25;23.10;56.30
6244;DHT22;3155;49.940;8.450;2023-06-14T06:40:52;23.10;55.90
6244;DHT22;3155;49.940;8.450;2023-06-14T06:43:20;23.20;56.00
6244;DHT22;3155;49.940;8.450;2023-06-14T06:45:47;23.50;57.90
6244;DHT22;3155;49.940;8.450;2023-06-14T06:48:16;23.20;55.90
6244;DHT22;3155;49.940;8.450;2023-06-14T06:50:43;22.90;54.30
6244;DHT22;3155;49.940;8.450;2023-06-14T06:53:09;22.60;53.10
6244;DHT22;3155;49.940;8.450;2023-06-14T06:55:39;22.80;53.80
6244;DHT22;3155;49.940;8.450;2023-06-14T06:58:06;23.40;72.40
6244;DHT22;3155;49.940;8.450;2023-06-14T07:00:35;23.60;58.00
6244;DHT22;3155;49.940;8.450;2023-06-14T07:03:02;23.40;56.90
6244;DHT22;3155;49.940;8.450;2023-06-14T07:05:31;23.80;58.10
6244;DHT22;3155;49.940;8.450;2023-06-14T07:07:58;23.60;57.60
6244;DHT22;3155;49.940;8.450;2023-06-14T07:10:25;23.80;58.80
6244;DHT22;3155;49.940;8.450;2023-06-14T07:12:52;24.00;59.40
6244;DHT22;3155;49.940;8.450;2023-06-14T07:15:19;23.90;58.30
6244;DHT22;3155;49.940;8.450;2023-06-14T07:17:48;24.00;59.00
6244;DHT22;3155;49.940;8.450;2023-06-14T07:20:15;24.40;76.40
6244;DHT22;3155;49.940;8.450;2023-06-14T07:22:43;24.70;62.10
6244;DHT22;3155;49.940;8.450;2023-06-14T07:25:10;24.50;61.20
6244;DHT22;3155;49.940;8.450;2023-06-14T07:27:43;24.30;60.70
6244;DHT22;3155;49.940;8.450;2023-06-14T07:30:10;24.10;59.40
6244;DHT22;3155;49.940;8.450;2023-06-14T07:32:37;24.00;58.80
6244;DHT22;3155;49.940;8.450;2023-06-14T07:35:04;24.00;58.60
6244;DHT22;3155;49.940;8.450;2023-06-14T07:37:31;23.80;56.90
6244;DHT22;3155;49.940;8.450;2023-06-14T07:39:58;23.30;54.40
6244;DHT22;3155;49.940;8.450;2023-06-14T07:42:25;23.80;56.60
6244;DHT22;3155;49.940;8.450;2023-06-14T07:44:52;24.10;58.20
6244;DHT22;3155;49.940;8.450;2023-06-14T07:47:20;23.90;57.80
6244;DHT22;3155;49.940;8.450;2023-06-14T07:49:47;23.80;57.20
6244;DHT22;3155;49.940;8.450;2023-06-14T07:52:14;23.90;57.20
6244;DHT22;3155;49.940;8.450;2023-06-14T07:54:41;24.30;59.30
6244;DHT22;3155;49.940;8.450;2023-06-14T07:57:11;24.90;61.90
6244;DHT22;3155;49.940;8.450;2023-06-14T07:59:40;25.10;62.30
6244;DHT22;3155;49.940;8.450;2023-06-14T08:02:07;25.20;62.70
6244;DHT22;3155;49.940;8.450;2023-06-14T08:04:34;25.00;62.50
6244;DHT22;3155;49.940;8.450;2023-06-14T08:07:00;25.10;61.60
6244;DHT22;3155;49.940;8.450;2023-06-14T08:09:27;25.20;62.60
6244;DHT22;3155;49.940;8.450;2023-06-14T08:11:56;25.10;62.10
6244;DHT22;3155;49.940;8.450;2023-06-14T08:14:22;25.80;65.70
6244;DHT22;3155;49.940;8.450;2023-06-14T08:16:50;26.10;67.30
6244;DHT22;3155;49.940;8.450;2023-06-14T08:19:16;26.00;66.00
6244;DHT22;3155;49.940;8.450;2023-06-14T08:21:44;25.90;64.90
6244;DHT22;3155;49.940;8.450;2023-06-14T08:24:12;25.00;60.60
6244;DHT22;3155;49.940;8.450;2023-06-14T08:26:39;24.80;58.70
6244;DHT22;3155;49.940;8.450;2023-06-14T08:29:06;25.10;60.20
6244;DHT22;3155;49.940;8.450;2023-06-14T08:31:34;25.20;61.90
6244;DHT22;3155;49.940;8.450;2023-06-14T08:34:00;25.30;61.20
6244;DHT22;3155;49.940;8.450;2023-06-14T08:36:35;25.50;62.20
6244;DHT22;3155;49.940;8.450;2023-06-14T08:39:02;25.20;60.20
6244;DHT22;3155;49.940;8.450;2023-06-14T08:41:33;25.60;62.10
6244;DHT22;3155;49.940;8.450;2023-06-14T08:44:00;25.80;63.30
6244;DHT22;3155;49.940;8.450;2023-06-14T08:46:27;25.70;62.30
6244;DHT22;3155;49.940;8.450;2023-06-14T08:48:57;25.00;58.60
6244;DHT22;3155;49.940;8.450;2023-06-14T08:51:25;25.30;59.90
6244;DHT22;3155;49.940;8.450;2023-06-14T08:53:55;25.50;61.00
6244;DHT22;3155;49.940;8.450;2023-06-14T08:56:26;25.90;62.70
6244;DHT22;3155;49.940;8.450;2023-06-14T08:58:55;26.00;63.10
6244;DHT22;3155;49.940;8.450;2023-06-14T09:01:23;25.60;60.60
6244;DHT22;3155;49.940;8.450;2023-06-14T09:03:50;25.40;60.50
6244;DHT22;3155;49.940;8.450;2023-06-14T09:06:19;25.80;62.40
6244;DHT22;3155;49.940;8.450;2023-06-14T09:08:49;25.40;59.50
6244;DHT22;3155;49.940;8.450;2023-06-14T09:11:18;25.50;59.90
6244;DHT22;3155;49.940;8.450;2023-06-14T09:13:49;25.40;59.50
6244;DHT22;3155;49.940;8.450;2023-06-14T09:16:18;25.40;59.50
6244;DHT22;3155;49.940;8.450;2023-06-14T09:18:47;25.30;60.00
6244;DHT22;3155;49.940;8.450;2023-06-14T09:21:19;25.60;59.70
6244;DHT22;3155;49.940;8.450;2023-06-14T09:23:48;25.80;61.40
6244;DHT22;3155;49.940;8.450;2023-06-14T09:26:18;25.80;62.20
6244;DHT22;3155;49.940;8.450;2023-06-14T09:28:47;26.30;63.90
6244;DHT22;3155;49.940;8.450;2023-06-14T09:31:16;26.10;63.30
6244;DHT22;3155;49.940;8.450;2023-06-14T09:33:44;26.70;66.90
6244;DHT22;3155;49.940;8.450;2023-06-14T09:36:26;27.00;68.50
6244;DHT22;3155;49.940;8.450;2023-06-14T09:38:58;26.70;66.20
6244;DHT22;3155;49.940;8.450;2023-06-14T09:44:07;26.50;64.60
6244;DHT22;3155;49.940;8.450;2023-06-14T09:46:38;26.40;65.10
6244;DHT22;3155;49.940;8.450;2023-06-14T09:49:08;26.80;66.50
6244;DHT22;3155;49.940;8.450;2023-06-14T09:51:45;26.10;62.30
6244;DHT22;3155;49.940;8.450;2023-06-14T09:54:16;25.40;58.60
6244;DHT22;3155;49.940;8.450;2023-06-14T09:56:51;25.20;56.20
6244;DHT22;3155;49.940;8.450;2023-06-14T09:59:26;24.90;54.80
6244;DHT22;3155;49.940;8.450;2023-06-14T10:01:58;24.60;53.70
6244;DHT22;3155;49.940;8.450;2023-06-14T10:04:30;25.30;57.70
6244;DHT22;3155;49.940;8.450;2023-06-14T10:06:58;26.00;61.10
6244;DHT22;3155;49.940;8.450;2023-06-14T10:09:27;26.70;65.70
6244;DHT22;3155;49.940;8.450;2023-06-14T10:12:01;27.30;68.60
6244;DHT22;3155;49.940;8.450;2023-06-14T10:14:30;27.50;68.50
6244;DHT22;3155;49.940;8.450;2023-06-14T10:17:06;26.90;66.50
6244;DHT22;3155;49.940;8.450;2023-06-14T10:19:45;26.70;64.30
6244;DHT22;3155;49.940;8.450;2023-06-14T10:22:41;26.80;65.40
6244;DHT22;3155;49.940;8.450;2023-06-14T10:25:12;26.30;61.60
6244;DHT22;3155;49.940;8.450;2023-06-14T10:27:44;26.60;63.00
6244;DHT22;3155;49.940;8.450;2023-06-14T10:30:14;26.50;62.80
6244;DHT22;3155;49.940;8.450;2023-06-14T10:33:18;26.80;64.20
6244;DHT22;3155;49.940;8.450;2023-06-14T10:35:47;26.90;63.30
6244;DHT22;3155;49.940;8.450;2023-06-14T10:38:30;26.90;62.60
6244;DHT22;3155;49.940;8.450;2023-06-14T10:40:57;26.80;62.50
6244;DHT22;3155;49.940;8.450;2023-06-14T10:43:24;26.40;61.30
6244;DHT22;3155;49.940;8.450;2023-06-14T10:48:44;27.20;63.80
6244;DHT22;3155;49.940;8.450;2023-06-14T10:51:20;26.70;61.10
6244;DHT22;3155;49.940;8.450;2023-06-14T10:53:49;26.30;58.50
6244;DHT22;3155;49.940;8.450;2023-06-14T10:56:33;25.80;55.80
6244;DHT22;3155;49.940;8.450;2023-06-14T10:59:02;25.40;53.60
6244;DHT22;3155;49.940;8.450;2023-06-14T11:03:57;26.30;58.40
6244;DHT22;3155;49.940;8.450;2023-06-14T11:09:32;27.30;79.30
6244;DHT22;3155;49.940;8.450;2023-06-14T11:12:10;26.80;61.70
6244;DHT22;3155;49.940;8.450;2023-06-14T11:14:39;26.10;57.30
6244;DHT22;3155;49.940;8.450;2023-06-14T11:17:08;25.80;55.80
6244;DHT22;3155;49.940;8.450;2023-06-14T11:19:40;25.40;53.20
6244;DHT22;3155;49.940;8.450;2023-06-14T11:22:07;25.30;52.40
6244;DHT22;3155;49.940;8.450;2023-06-14T11:24:35;25.90;56.70
6244;DHT22;3155;49.940;8.450;2023-06-14T11:27:03;26.10;58.30
6244;DHT22;3155;49.940;8.450;2023-06-14T11:29:29;26.60;62.80
6244;DHT22;3155;49.940;8.450;2023-06-14T11:31:57;26.80;61.90
6244;DHT22;3155;49.940;8.450;2023-06-14T11:34:24;26.60;60.50
6244;DHT22;3155;49.940;8.450;2023-06-14T11:36:51;25.50;54.40
6244;DHT22;3155;49.940;8.450;2023-06-14T11:39:24;25.60;54.20
6244;DHT22;3155;49.940;8.450;2023-06-14T11:41:51;25.60;68.50
6244;DHT22;3155;49.940;8.450;2023-06-14T11:44:18;25.60;54.00
6244;DHT22;3155;49.940;8.450;2023-06-14T11:46:44;25.50;53.70
6244;DHT22;3155;49.940;8.450;2023-06-14T11:49:11;26.20;56.90
6244;DHT22;3155;49.940;8.450;2023-06-14T11:51:38;25.90;56.20
6244;DHT22;3155;49.940;8.450;2023-06-14T11:54:06;25.90;70.00
6244;DHT22;3155;49.940;8.450;2023-06-14T11:56:44;26.20;57.80
6244;DHT22;3155;49.940;8.450;2023-06-14T11:59:13;27.20;64.10
6244;DHT22;3155;49.940;8.450;2023-06-14T12:01:43;27.00;63.60
6244;DHT22;3155;49.940;8.450;2023-06-14T12:04:10;28.10;68.60
6244;DHT22;3155;49.940;8.450;2023-06-14T12:06:36;28.60;71.50
6244;DHT22;3155;49.940;8.450;2023-06-14T12:09:07;27.50;65.60
6244;DHT22;3155;49.940;8.450;2023-06-14T12:11:40;28.80;72.30
6244;DHT22;3155;49.940;8.450;2023-06-14T12:14:08;29.80;78.40
6244;DHT22;3155;49.940;8.450;2023-06-14T12:16:38;30.20;80.50
6244;DHT22;3155;49.940;8.450;2023-06-14T12:19:13;30.70;82.70
6244;DHT22;3155;49.940;8.450;2023-06-14T12:21:41;29.80;78.10
6244;DHT22;3155;49.940;8.450;2023-06-14T12:24:08;29.30;75.20
6244;DHT22;3155;49.940;8.450;2023-06-14T12:26:39;28.80;70.80
6244;DHT22;3155;49.940;8.450;2023-06-14T12:29:09;28.20;67.80
6244;DHT22;3155;49.940;8.450;2023-06-14T12:31:37;27.80;65.30
6244;DHT22;3155;49.940;8.450;2023-06-14T12:34:07;27.40;64.10
6244;DHT22;3155;49.940;8.450;2023-06-14T12:36:36;27.20;61.30
6244;DHT22;3155;49.940;8.450;2023-06-14T12:39:08;26.70;59.60
6244;DHT22;3155;49.940;8.450;2023-06-14T12:41:35;26.40;57.00
6244;DHT22;3155;49.940;8.450;2023-06-14T12:44:04;27.10;61.60
6244;DHT22;3155;49.940;8.450;2023-06-14T12:46:31;27.90;66.20
6244;DHT22;3155;49.940;8.450;2023-06-14T12:48:59;28.40;68.30
6244;DHT22;3155;49.940;8.450;2023-06-14T12:51:25;28.00;66.80
6244;DHT22;3155;49.940;8.450;2023-06-14T12:53:52;27.80;65.10
6244;DHT22;3155;49.940;8.450;2023-06-14T12:56:21;28.10;66.20
6244;DHT22;3155;49.940;8.450;2023-06-14T12:58:50;27.40;62.50
6244;DHT22;3155;49.940;8.450;2023-06-14T13:01:18;27.00;59.90
6244;DHT22;3155;49.940;8.450;2023-06-14T13:03:49;26.80;58.50
6244;DHT22;3155;49.940;8.450;2023-06-14T13:06:18;27.00;59.00
6244;DHT22;3155;49.940;8.450;2023-06-14T13:08:44;27.10;59.80
6244;DHT22;3155;49.940;8.450;2023-06-14T13:11:18;27.40;61.40
6244;DHT22;3155;49.940;8.450;2023-06-14T13:13:46;28.00;65.60
6244;DHT22;3155;49.940;8.450;2023-06-14T13:16:12;26.40;57.60
6244;DHT22;3155;49.940;8.450;2023-06-14T13:18:41;26.20;55.20
6244;DHT22;3155;49.940;8.450;2023-06-14T13:21:07;26.20;55.30
6244;DHT22;3155;49.940;8.450;2023-06-14T13:23:34;26.40;55.40
6244;DHT22;3155;49.940;8.450;2023-06-14T13:26:01;26.60;57.50
6244;DHT22;3155;49.940;8.450;2023-06-14T13:28:29;27.00;58.70
6244;DHT22;3155;49.940;8.450;2023-06-14T13:31:01;26.90;58.40
6244;DHT22;3155;49.940;8.450;2023-06-14T13:33:28;26.70;58.00
6244;DHT22;3155;49.940;8.450;2023-06-14T13:35:55;27.00;59.20
6244;DHT22;3155;49.940;8.450;2023-06-14T13:38:22;27.90;64.80
6244;DHT22;3155;49.940;8.450;2023-06-14T13:40:48;29.00;71.30
6244;DHT22;3155;49.940;8.450;2023-06-14T13:43:15;29.30;73.10
6244;DHT22;3155;49.940;8.450;2023-06-14T13:45:42;29.60;74.50
6244;DHT22;3155;49.940;8.450;2023-06-14T13:48:08;30.50;78.90
6244;DHT22;3155;49.940;8.450;2023-06-14T13:50:53;30.90;81.40
6244;DHT22;3155;49.940;8.450;2023-06-14T13:53:22;31.50;83.80
6244;DHT22;3155;49.940;8.450;2023-06-14T13:55:48;31.50;84.80
6244;DHT22;3155;49.940;8.450;2023-06-14T13:58:19;31.50;83.60
6244;DHT22;3155;49.940;8.450;2023-06-14T14:00:45;30.00;75.20
6244;DHT22;3155;49.940;8.450;2023-06-14T14:03:12;29.10;69.10
6244;DHT22;3155;49.940;8.450;2023-06-14T14:06:06;28.00;62.70
6244;DHT22;3155;49.940;8.450;2023-06-14T14:08:50;27.40;59.20
6244;DHT22;3155;49.940;8.450;2023-06-14T14:11:38;26.60;55.10
6244;DHT22;3155;49.940;8.450;2023-06-14T14:14:06;26.40;53.10
6244;DHT22;3155;49.940;8.450;2023-06-14T14:16:34;26.10;53.20
6244;DHT22;3155;49.940;8.450;2023-06-14T14:19:01;27.20;59.70
6244;DHT22;3155;49.940;8.450;2023-06-14T14:21:28;28.70;68.10
6244;DHT22;3155;49.940;8.450;2023-06-14T14:23:55;30.00;75.30
6244;DHT22;3155;49.940;8.450;2023-06-14T14:26:22;31.30;83.10
6244;DHT22;3155;49.940;8.450;2023-06-14T14:29:10;32.10;86.60
6244;DHT22;3155;49.940;8.450;2023-06-14T14:31:43;32.10;86.30
6244;DHT22;3155;49.940;8.450;2023-06-14T14:34:09;32.90;90.20
6244;DHT22;3155;49.940;8.450;2023-06-14T14:36:36;31.40;83.10
6244;DHT22;3155;49.940;8.450;2023-06-14T14:39:04;32.40;88.20
6244;DHT22;3155;49.940;8.450;2023-06-14T14:41:58;32.60;89.40
6244;DHT22;3155;49.940;8.450;2023-06-14T14:44:25;31.80;84.50
6244;DHT22;3155;49.940;8.450;2023-06-14T14:46:52;30.90;78.40
6244;DHT22;3155;49.940;8.450;2023-06-14T14:49:19;29.20;67.80
6244;DHT22;3155;49.940;8.450;2023-06-14T14:51:46;28.10;61.50
6244;DHT22;3155;49.940;8.450;2023-06-14T14:54:18;27.00;55.40
6244;DHT22;3155;49.940;8.450;2023-06-14T14:56:45;27.40;56.70
6244;DHT22;3155;49.940;8.450;2023-06-14T14:59:11;27.60;58.30
6244;DHT22;3155;49.940;8.450;2023-06-14T15:01:38;28.20;62.80
6244;DHT22;3155;49.940;8.450;2023-06-14T15:04:05;29.40;69.60
6244;DHT22;3155;49.940;8.450;2023-06-14T15:06:32;30.60;76.40
6244;DHT22;3155;49.940;8.450;2023-06-14T15:09:12;32.10;94.80
6244;DHT22;3155;49.940;8.450;2023-06-14T15:11:39;32.90;89.20
6244;DHT22;3155;49.940;8.450;2023-06-14T15:14:10;31.80;82.70
6244;DHT22;3155;49.940;8.450;2023-06-14T15:16:40;30.40;75.10
6244;DHT22;3155;49.940;8.450;2023-06-14T15:19:06;29.50;68.30
6244;DHT22;3155;49.940;8.450;2023-06-14T15:21:33;28.60;63.10
6244;DHT22;3155;49.940;8.450;2023-06-14T15:24:01;27.90;59.70
6244;DHT22;3155;49.940;8.450;2023-06-14T15:26:28;29.00;66.60
6244;DHT22;3155;49.940;8.450;2023-06-14T15:28:57;30.40;75.00
6244;DHT22;3155;49.940;8.450;2023-06-14T15:31:30;32.10;84.50
6244;DHT22;3155;49.940;8.450;2023-06-14T15:33:58;33.30;90.50
6244;DHT22;3155;49.940;8.450;2023-06-14T15:36:25;33.00;90.20
6244;DHT22;3155;49.940;8.450;2023-06-14T15:38:55;34.00;92.00
6244;DHT22;3155;49.940;8.450;2023-06-14T15:41:27;34.00;92.30
6244;DHT22;3155;49.940;8.450;2023-06-14T15:43:54;33.70;91.60
6244;DHT22;3155;49.940;8.450;2023-06-14T15:46:24;34.30;92.90
6244;DHT22;3155;49.940;8.450;2023-06-14T15:48:51;34.30;93.10
6244;DHT22;3155;49.940;8.450;2023-06-14T15:51:17;34.10;92.80
6244;DHT22;3155;49.940;8.450;2023-06-14T15:53:48;33.70;91.90
6244;DHT22;3155;49.940;8.450;2023-06-14T15:56:15;33.40;90.80
6244;DHT22;3155;49.940;8.450;2023-06-14T15:58:41;32.70;88.60
6244;DHT22;3155;49.940;8.450;2023-06-14T16:01:08;30.20;73.40
6244;DHT22;3155;49.940;8.450;2023-06-14T16:03:43;29.00;65.90
6244;DHT22;3155;49.940;8.450;2023-06-14T16:06:11;29.80;70.90
6244;DHT22;3155;49.940;8.450;2023-06-14T16:08:38;30.90;76.90
6244;DHT22;3155;49.940;8.450;2023-06-14T16:11:07;31.50;80.20
6244;DHT22;3155;49.940;8.450;2023-06-14T16:13:39;31.70;81.00
6244;DHT22;3155;49.940;8.450;2023-06-14T16:16:11;30.80;75.80
6244;DHT22;3155;49.940;8.450;2023-06-14T16:18:39;30.30;72.20
6244;DHT22;3155;49.940;8.450;2023-06-14T16:21:09;28.90;63.50
6244;DHT22;3155;49.940;8.450;2023-06-14T16:23:40;27.50;55.50
6244;DHT22;3155;49.940;8.450;2023-06-14T16:26:10;26.70;51.40
6244;DHT22;3155;49.940;8.450;2023-06-14T16:28:39;26.20;48.00